Time;durP1;ratioP1;P1;durP2;ratioP2;P2;SDS_P1;SDS_P2;PMS_P1;PMS_P2;Temp;Humidity;BMP_temperature;BMP_pressure;BME280_temperature;BME280_humidity;BME280_pressure;Samples;Min_cycle;Max_cycle;Signal;HPM_P1;HPM_P2
2022/11/12 00:00:31;;;;;;;;;0.00;0.00;;;;;15.23;58.94;101159.09;5077493;28;45424;-72
2022/11/12 00:02:56;;;;;;;;;0.00;0.00;;;;;15.08;58.85;101155.28;5077570;28;46042;-72
2022/11/12 00:05:22;;;;;;;;;0.00;0.00;;;;;15.06;59.23;101153.44;5057726;28;45382;-72
2022/11/12 00:07:47;;;;;;;;;0.00;0.00;;;;;15.07;58.20;101153.50;5059078;28;45456;-72
2022/11/12 00:10:13;;;;;;;;;0.00;0.00;;;;;15.06;59.08;101151.75;5077368;28;45318;-71
2022/11/12 00:12:39;;;;;;;;;0.00;0.00;;;;;15.03;58.89;101156.91;5057841;28;45496;-71
2022/11/12 00:15:05;;;;;;;;;0.00;0.00;;;;;14.98;59.65;101155.94;5076825;28;45411;-72
2022/11/12 00:17:30;;;;;;;;;0.00;0.00;;;;;14.95;59.45;101149.72;5077156;28;45338;-71
2022/11/12 00:19:56;;;;;;;;;0.00;0.00;;;;;14.89;59.77;101140.84;5077391;28;45286;-72
2022/11/12 00:22:22;;;;;;;;;0.00;0.00;;;;;14.87;60.04;101152.19;5077588;28;46243;-71
2022/11/12 00:24:52;;;;;;;;;0.00;0.00;;;;;14.72;60.55;101144.81;5077725;28;45418;-71
2022/11/12 00:27:18;;;;;;;;;0.00;0.00;;;;;14.72;60.48;101147.44;5058752;28;45426;-71
2022/11/12 00:29:44;;;;;;;;;0.00;0.00;;;;;14.67;60.82;101154.38;5059513;28;45599;-71
2022/11/12 00:32:10;;;;;;;;;0.00;0.00;;;;;14.62;60.57;101150.72;5057693;28;47646;-74
2022/11/12 00:34:36;;;;;;;;;0.00;0.00;;;;;14.62;61.14;101153.34;5078107;28;45536;-78
2022/11/12 00:37:02;;;;;;;;;0.00;0.00;;;;;14.58;61.04;101159.41;5078165;28;45366;-80
2022/11/12 00:39:28;;;;;;;;;0.00;0.00;;;;;14.55;61.39;101164.56;5078586;28;45402;-80
2022/11/12 00:41:54;;;;;;;;;0.00;0.00;;;;;14.45;61.80;101153.81;5076641;28;45483;-72
2022/11/12 00:44:20;;;;;;;;;0.67;0.00;;;;;14.40;62.04;101158.06;5076656;28;45574;-81
2022/11/12 00:46:45;;;;;;;;;0.00;0.00;;;;;14.34;62.84;101155.31;5076637;28;45358;-80
2022/11/12 00:49:11;;;;;;;;;0.00;0.00;;;;;14.20;62.61;101147.06;5076313;28;45552;-80
2022/11/12 00:51:38;;;;;;;;;0.00;0.00;;;;;14.20;61.90;101159.34;5076674;28;45529;-80
2022/11/12 00:54:04;;;;;;;;;0.00;0.00;;;;;14.18;62.65;101140.00;5076629;28;45322;-80
2022/11/12 00:56:30;;;;;;;;;0.00;0.00;;;;;14.16;62.68;101154.84;5058201;28;45457;-80
2022/11/12 00:58:57;;;;;;;;;0.00;0.00;;;;;14.06;63.49;101144.09;5076734;28;45417;-79
2022/11/12 01:01:23;;;;;;;;;0.33;0.00;;;;;14.00;63.30;101138.69;5057087;28;45517;-80
2022/11/12 01:03:49;;;;;;;;;0.00;0.00;;;;;13.95;63.19;101156.09;5058070;28;45529;-80
2022/11/12 01:06:18;;;;;;;;;0.00;0.00;;;;;13.90;63.87;101145.44;5076421;28;45466;-81
2022/11/12 01:08:44;;;;;;;;;0.00;0.00;;;;;13.87;63.41;101147.13;5066789;28;45271;-81
2022/11/12 01:11:13;;;;;;;;;0.00;0.00;;;;;13.82;63.92;101146.09;5075982;28;45500;-80
2022/11/12 01:13:42;;;;;;;;;0.00;0.00;;;;;13.79;64.25;101138.16;5076142;28;45590;-80
2022/11/12 01:16:14;;;;;;;;;0.00;0.00;;;;;13.75;64.51;101146.78;5076231;28;45449;-81
2022/11/12 01:18:41;;;;;;;;;0.00;0.00;;;;;13.66;64.23;101135.19;5078755;28;45641;-80
2022/11/12 01:21:07;;;;;;;;;0.00;0.00;;;;;13.63;63.98;101135.13;5078559;28;45514;-75
2022/11/12 01:23:35;;;;;;;;;0.00;0.00;;;;;13.68;64.35;101149.25;5079415;28;45564;-80
2022/11/12 01:26:08;;;;;;;;;0.00;0.00;;;;;13.64;64.74;101157.88;5079919;27;45666;-80
2022/11/12 01:28:34;;;;;;;;;0.00;0.00;;;;;13.63;64.63;101164.00;5079822;28;45296;-80
2022/11/12 01:31:16;;;;;;;;;0.00;0.00;;;;;13.60;64.75;101171.78;5079439;28;45608;-80
2022/11/12 01:33:44;;;;;;;;;0.00;0.00;;;;;13.56;65.54;101161.16;5079320;28;45494;-79
2022/11/12 01:36:11;;;;;;;;;0.00;0.00;;;;;13.46;64.87;101158.28;5079487;28;45550;-81
2022/11/12 01:38:38;;;;;;;;;0.00;0.00;;;;;13.48;65.30;101169.69;5079970;28;45350;-77
2022/11/12 01:41:05;;;;;;;;;0.00;0.00;;;;;13.44;65.68;101167.84;5079204;28;46110;-74
2022/11/12 01:43:31;;;;;;;;;0.00;0.00;;;;;13.36;66.01;101158.88;5079393;28;45390;-75
2022/11/12 01:46:00;;;;;;;;;0.00;0.00;;;;;13.34;65.98;101163.19;5079730;28;45533;-76
2022/11/12 01:48:33;;;;;;;;;0.00;0.00;;;;;13.32;65.42;101150.00;5079705;28;45560;-72
2022/11/12 01:51:02;;;;;;;;;0.00;0.00;;;;;13.39;65.58;101168.56;5060809;28;47724;-75
2022/11/12 01:53:33;;;;;;;;;0.00;0.00;;;;;13.29;65.69;101151.63;5076435;28;45523;-73
2022/11/12 01:56:01;;;;;;;;;0.00;0.00;;;;;13.35;66.10;101172.84;5079306;28;45512;-72
2022/11/12 01:58:31;;;;;;;;;0.00;0.00;;;;;13.35;66.17;101170.22;5076931;28;45489;-76
2022/11/12 02:00:59;;;;;;;;;0.00;0.00;;;;;13.33;66.38;101170.16;5079402;28;45456;-76
2022/11/12 02:03:25;;;;;;;;;0.00;0.00;;;;;13.31;65.87;101173.59;5079399;28;45326;-74
2022/11/12 02:05:59;;;;;;;;;0.00;0.00;;;;;13.25;65.87;101160.25;5079295;28;45287;-74
2022/11/12 02:08:28;;;;;;;;;0.00;0.00;;;;;13.23;66.51;101167.19;5079652;28;45455;-80
2022/11/12 02:10:53;;;;;;;;;0.00;0.00;;;;;13.12;66.55;101165.16;5079174;28;45734;-79
2022/11/12 02:16:04;;;;;;;;;0.00;0.00;;;;;13.05;66.73;101163.19;5076387;28;45315;-75
2022/11/12 02:18:30;;;;;;;;;0.00;0.00;;;;;13.04;66.70;101169.28;5078973;28;45356;-75
2022/11/12 02:21:02;;;;;;;;;0.33;0.00;;;;;13.00;66.63;101166.53;5078891;28;46222;-74
2022/11/12 02:23:27;;;;;;;;;0.00;0.00;;;;;13.04;67.33;101173.66;5079117;27;45437;-77
2022/11/12 02:25:53;;;;;;;;;0.00;0.00;;;;;12.96;66.89;101155.06;5078734;28;45497;-79
2022/11/12 02:28:19;;;;;;;;;0.00;0.00;;;;;13.01;67.19;101163.03;5078824;28;45502;-80
2022/11/12 02:30:47;;;;;;;;;0.00;0.00;;;;;13.03;67.02;101153.47;5078843;28;46154;-80
2022/11/12 02:33:13;;;;;;;;;0.00;0.00;;;;;13.01;67.30;101157.81;5078769;28;45401;-79
2022/11/12 02:35:39;;;;;;;;;0.00;0.00;;;;;13.00;67.28;101156.03;5060230;28;45605;-80
2022/11/12 02:38:06;;;;;;;;;0.33;0.00;;;;;12.97;67.07;101159.47;5079399;28;45620;-80
2022/11/12 02:40:32;;;;;;;;;0.00;0.00;;;;;12.98;67.15;101160.34;5060457;28;45453;-80
2022/11/12 02:42:58;;;;;;;;;0.00;0.00;;;;;12.95;67.11;101150.63;5079309;28;45419;-80
2022/11/12 02:45:23;;;;;;;;;0.00;0.00;;;;;13.04;66.34;101152.66;5079178;28;45497;-79
2022/11/12 02:47:49;;;;;;;;;0.00;0.00;;;;;13.07;65.67;101145.78;5061106;28;45398;-80
2022/11/12 02:50:15;;;;;;;;;0.00;0.00;;;;;13.16;65.80;101155.63;5078985;28;46258;-80
2022/11/12 02:52:40;;;;;;;;;0.00;0.00;;;;;13.18;65.91;101153.06;5078991;28;45316;-80
2022/11/12 02:55:07;;;;;;;;;0.00;0.00;;;;;13.14;65.64;101133.72;5078980;28;45500;-79
2022/11/12 02:57:33;;;;;;;;;0.00;0.00;;;;;13.22;65.70;101142.69;5078849;28;45544;-79
2022/11/12 02:59:58;;;;;;;;;0.00;0.00;;;;;13.18;65.79;101137.31;5078929;28;45398;-80
2022/11/12 03:02:24;;;;;;;;;0.00;0.00;;;;;13.22;66.10;101141.81;5078929;28;45381;-81
2022/11/12 03:04:49;;;;;;;;;0.00;0.00;;;;;13.22;65.76;101140.06;5078850;28;45334;-81
2022/11/12 03:07:15;;;;;;;;;0.00;0.00;;;;;13.23;65.29;101141.88;5079312;28;45366;-80
2022/11/12 03:09:40;;;;;;;;;0.00;0.00;;;;;13.25;65.34;101144.50;5060406;28;45644;-80
2022/11/12 03:12:06;;;;;;;;;0.00;0.00;;;;;13.25;65.35;101131.38;5078656;28;45389;-80
2022/11/12 03:14:32;;;;;;;;;0.00;0.00;;;;;13.12;66.27;101120.53;5079078;28;45327;-72
2022/11/12 03:16:57;;;;;;;;;0.00;0.00;;;;;13.11;67.31;101129.28;5079399;28;45323;-80
2022/11/12 03:19:23;;;;;;;;;0.00;0.00;;;;;12.97;67.20;101116.59;5060263;28;46500;-81
2022/11/12 03:21:48;;;;;;;;;0.00;0.00;;;;;13.01;67.01;101128.94;5078612;28;45489;-80
2022/11/12 03:24:14;;;;;;;;;0.00;0.00;;;;;12.93;67.06;101116.53;5078677;27;45347;-80
2022/11/12 03:26:39;;;;;;;;;0.00;0.00;;;;;12.99;66.91;101117.53;5078868;28;45592;-80
2022/11/12 03:29:11;;;;;;;;;0.00;0.00;;;;;12.99;66.62;101117.53;5078395;28;45602;-78
2022/11/12 03:31:37;;;;;;;;;0.00;0.00;;;;;12.99;66.54;101115.81;5078613;28;45352;-79
2022/11/12 03:34:03;;;;;;;;;0.00;0.00;;;;;12.91;66.66;101106.81;5078809;28;45923;-74
2022/11/12 03:36:29;;;;;;;;;0.00;0.00;;;;;13.04;66.23;101121.19;5060511;28;45472;-79
2022/11/12 03:38:54;;;;;;;;;0.00;0.00;;;;;13.02;66.53;101123.75;5078242;27;46080;-79
2022/11/12 03:41:20;;;;;;;;;0.00;0.00;;;;;12.92;67.12;101122.59;5077540;28;45223;-80
2022/11/12 03:43:45;;;;;;;;;0.00;0.00;;;;;12.94;67.26;101131.41;5078143;27;45458;-81
2022/11/12 03:46:11;;;;;;;;;0.00;0.00;;;;;12.91;67.19;101126.06;5078512;28;45241;-80
2022/11/12 03:48:36;;;;;;;;;0.00;0.00;;;;;12.91;67.42;101122.53;5078159;28;46242;-80
2022/11/12 03:51:02;;;;;;;;;0.00;0.00;;;;;12.79;67.23;101127.41;5078500;28;45450;-79
2022/11/12 03:53:28;;;;;;;;;0.00;0.00;;;;;12.82;67.69;101141.53;5078008;28;45533;-80
2022/11/12 03:55:53;;;;;;;;;0.00;0.00;;;;;12.79;68.21;101140.53;5078208;28;45503;-79
2022/11/12 03:58:19;;;;;;;;;0.00;0.00;;;;;12.77;67.59;101137.84;5077845;28;46020;-80
2022/11/12 04:00:44;;;;;;;;;0.00;0.00;;;;;12.78;67.61;101138.78;5078036;28;45759;-81
2022/11/12 04:03:10;;;;;;;;;0.00;0.00;;;;;12.79;67.74;101130.03;5077900;28;45575;-80
2022/11/12 04:08:34;;;;;;;;;0.00;0.00;;;;;12.82;67.73;101138.91;5077885;28;45855;-80
2022/11/12 04:11:03;;;;;;;;;0.00;0.00;;;;;12.82;67.70;101140.63;5077989;28;45310;-80
2022/11/12 04:13:29;;;;;;;;;0.67;0.00;;;;;12.82;67.93;101136.28;5076643;28;45551;-80
2022/11/12 04:21:55;;;;;;;;;0.00;0.00;;;;;12.74;68.54;101146.53;5078031;28;45427;-74
2022/11/12 04:27:17;;;;;;;;;0.00;0.00;;;;;12.63;68.92;101120.81;5078014;28;45302;-81
2022/11/12 04:32:29;;;;;;;;;0.00;0.00;;;;;12.64;68.27;101120.88;5077729;28;45261;-80
2022/11/12 04:34:55;;;;;;;;;0.00;0.00;;;;;12.65;68.35;101119.13;5076192;28;45486;-81
2022/11/12 04:37:23;;;;;;;;;0.00;0.00;;;;;12.64;68.30;101125.25;5076386;28;46144;-81
2022/11/12 04:39:49;;;;;;;;;0.00;0.00;;;;;12.65;68.29;101133.16;5059106;28;46478;-75
2022/11/12 04:44:58;;;;;;;;;0.00;0.00;;;;;12.64;68.34;101120.88;5077553;28;45306;-77
2022/11/12 04:47:32;;;;;;;;;0.00;0.00;;;;;12.64;68.45;101112.13;5077196;28;45402;-74
2022/11/12 04:49:59;;;;;;;;;0.00;0.00;;;;;12.62;68.33;101111.19;5077179;28;46447;-73
2022/11/12 04:52:26;;;;;;;;;0.00;0.00;;;;;12.54;69.02;101098.72;5077868;28;45464;-75
2022/11/12 04:54:52;;;;;;;;;0.00;0.00;;;;;12.60;68.67;101116.38;5081087;28;45528;-74
2022/11/12 04:57:18;;;;;;;;;0.00;0.00;;;;;12.54;68.90;101103.09;5080727;28;45377;-78
2022/11/12 04:59:44;;;;;;;;;0.00;0.00;;;;;12.62;68.26;101105.97;5080729;28;45486;-77
2022/11/12 05:02:09;;;;;;;;;0.00;0.00;;;;;12.64;68.18;101096.41;5080548;28;45591;-75
2022/11/12 05:04:35;;;;;;;;;0.00;0.00;;;;;12.68;67.56;101093.91;5081203;28;45260;-74
2022/11/12 05:07:01;;;;;;;;;0.00;0.00;;;;;12.63;67.93;101076.25;5062972;28;45313;-73
2022/11/12 05:09:27;;;;;;;;;0.00;0.00;;;;;12.69;67.66;101090.47;5080731;28;45437;-77
2022/11/12 05:11:54;;;;;;;;;0.00;0.00;;;;;12.66;67.97;101074.63;5080712;28;45417;-74
2022/11/12 05:14:20;;;;;;;;;0.00;0.00;;;;;12.66;68.02;101086.84;5080739;28;45342;-72
2022/11/12 05:16:47;;;;;;;;;0.00;0.00;;;;;12.68;67.62;101079.94;5081347;28;45415;-77
2022/11/12 05:19:13;;;;;;;;;0.00;0.00;;;;;12.62;67.82;101072.75;5063104;28;46373;-77
2022/11/12 05:24:24;;;;;;;;;0.00;0.00;;;;;12.72;66.93;101082.69;5081035;28;45362;-79
2022/11/12 05:26:50;;;;;;;;;0.00;0.00;;;;;12.72;66.28;101063.44;5096943;27;45529;-75
2022/11/12 05:29:17;;;;;;;;;0.00;0.00;;;;;12.84;65.73;101066.41;5080998;28;45326;-77
2022/11/12 05:31:43;;;;;;;;;0.00;0.00;;;;;12.88;66.09;101054.28;5080666;28;45346;-77
2022/11/12 05:34:09;;;;;;;;;0.00;0.00;;;;;12.93;65.50;101065.78;5081051;28;45361;-75
2022/11/12 05:36:34;;;;;;;;;0.00;0.00;;;;;12.90;65.37;101058.72;5080811;28;46141;-74
2022/11/12 05:39:00;;;;;;;;;0.00;0.00;;;;;12.95;65.37;101053.59;5080465;28;45477;-79
2022/11/12 05:41:26;;;;;;;;;0.00;0.00;;;;;12.90;65.84;101047.34;5080336;28;45346;-74
2022/11/12 05:43:53;;;;;;;;;0.00;0.00;;;;;12.94;65.55;101054.47;5080669;28;45296;-75
2022/11/12 05:46:19;;;;;;;;;0.00;0.00;;;;;12.88;65.90;101059.53;5080664;28;45427;-75
2022/11/12 05:48:44;;;;;;;;;0.00;0.00;;;;;12.86;66.34;101056.88;5080276;28;45595;-75
2022/11/12 05:51:14;;;;;;;;;0.00;0.00;;;;;12.86;66.21;101053.34;5080880;28;45513;-75
2022/11/12 05:53:40;;;;;;;;;0.00;0.00;;;;;12.86;66.03;101050.75;5081020;28;45214;-78
2022/11/12 05:56:07;;;;;;;;;0.00;0.00;;;;;12.83;66.14;101048.94;5062154;28;45441;-75
2022/11/12 05:58:32;;;;;;;;;0.00;0.00;;;;;12.85;65.36;101049.84;5079712;28;45485;-79
2022/11/12 06:00:58;;;;;;;;;0.00;0.00;;;;;12.89;65.01;101049.09;5080943;28;45510;-75
2022/11/12 06:03:25;;;;;;;;;0.00;0.00;;;;;12.94;65.00;101047.47;5079621;28;45493;-76
2022/11/12 06:05:50;;;;;;;;;0.00;0.00;;;;;12.97;64.87;101048.41;5080338;27;45407;-80
2022/11/12 06:08:16;;;;;;;;;0.00;0.00;;;;;13.00;64.66;101043.25;5079800;28;45977;-76
2022/11/12 06:10:42;;;;;;;;;0.00;0.00;;;;;12.97;64.59;101043.16;5080048;28;45361;-75
2022/11/12 06:13:07;;;;;;;;;0.00;0.00;;;;;12.99;63.96;101044.09;5062089;28;45624;-77
2022/11/12 06:15:33;;;;;;;;;0.33;0.00;;;;;13.07;64.15;101055.69;5061660;28;45533;-75
2022/11/12 06:17:58;;;;;;;;;0.00;0.00;;;;;13.06;63.89;101051.31;5079734;27;45344;-79
2022/11/12 06:20:24;;;;;;;;;0.00;0.00;;;;;13.05;64.20;101045.19;5079635;28;45470;-75
2022/11/12 06:22:50;;;;;;;;;1.00;1.00;;;;;13.13;63.14;101061.13;5061358;28;45452;-74
2022/11/12 06:25:16;;;;;;;;;0.00;0.00;;;;;13.06;63.18;101049.56;5079721;28;45282;-80
2022/11/12 06:27:42;;;;;;;;;0.00;0.00;;;;;13.16;62.70;101053.31;5095218;27;45344;-80
2022/11/12 06:30:08;;;;;;;;;0.00;0.00;;;;;13.24;62.61;101053.53;5079273;28;45347;-76
2022/11/12 06:32:34;;;;;;;;;20.25;20.25;;;;;13.31;62.88;101066.91;5095301;27;45266;-76
2022/11/12 06:35:00;;;;;;;;;0.00;0.00;;;;;13.24;62.99;101045.66;5095292;27;45500;-77
2022/11/12 06:37:25;;;;;;;;;0.00;0.00;;;;;13.30;63.08;101072.09;5079140;28;46269;-78
2022/11/12 06:39:51;;;;;;;;;0.00;0.00;;;;;13.23;63.11;101059.63;5079266;28;45228;-73
2022/11/12 06:42:16;;;;;;;;;0.00;0.00;;;;;13.31;62.72;101066.03;5079145;28;45402;-75
2022/11/12 06:44:42;;;;;;;;;0.00;0.00;;;;;13.30;62.90;101083.47;5079584;28;45382;-76
2022/11/12 06:47:09;;;;;;;;;0.00;0.00;;;;;13.27;63.19;101079.84;5079042;28;45342;-81
2022/11/12 06:49:34;;;;;;;;;0.00;0.00;;;;;13.27;62.86;101085.09;5061117;28;45416;-81
2022/11/12 06:52:00;;;;;;;;;0.67;0.33;;;;;13.23;62.54;101070.13;5079233;28;45357;-76
2022/11/12 06:54:25;;;;;;;;;2.00;0.00;;;;;13.26;62.91;101080.72;5079388;28;45484;-73
2022/11/12 06:56:51;;;;;;;;;1.00;0.00;;;;;13.32;62.85;101092.28;5078955;28;46002;-74
2022/11/12 06:59:17;;;;;;;;;1.00;1.00;;;;;13.27;62.68;101086.00;5078967;28;45326;-80
2022/11/12 07:01:42;;;;;;;;;1.00;1.00;;;;;13.38;62.81;101096.81;5079316;28;45413;-80
2022/11/12 07:04:09;;;;;;;;;0.00;0.00;;;;;13.46;62.44;101097.03;5079103;28;45390;-81
2022/11/12 07:06:35;;;;;;;;;0.67;0.67;;;;;13.50;61.85;101086.63;5078620;28;45377;-81
2022/11/12 07:09:02;;;;;;;;;0.33;0.33;;;;;13.53;62.19;101076.25;5078491;28;45479;-81
2022/11/12 07:11:28;;;;;;;;;1.00;0.00;;;;;13.63;61.76;101092.25;5079097;28;45207;-81
2022/11/12 07:13:53;;;;;;;;;0.33;0.33;;;;;13.65;61.79;101091.44;5079034;28;45267;-81
2022/11/12 07:16:19;;;;;;;;;0.00;0.00;;;;;13.73;61.50;101092.50;5093016;27;46139;-80
2022/11/12 07:18:45;;;;;;;;;0.00;0.00;;;;;13.75;61.89;101095.19;5078866;28;45583;-81
2022/11/12 07:21:16;;;;;;;;;0.00;0.00;;;;;13.77;61.57;101087.31;5078970;28;45867;-81
2022/11/12 07:23:41;;;;;;;;;1.00;1.00;;;;;13.78;61.97;101092.63;5078952;28;45424;-81
2022/11/12 07:26:17;;;;;;;;;0.00;0.00;;;;;13.83;61.94;101090.13;5078408;28;45265;-80
2022/11/12 07:28:44;;;;;;;;;0.00;0.00;;;;;13.89;61.29;101096.41;5078926;28;45609;-81
2022/11/12 07:31:11;;;;;;;;;0.00;0.00;;;;;14.00;61.02;101099.28;5078406;28;45277;-81
2022/11/12 07:33:37;;;;;;;;;0.00;0.00;;;;;14.06;60.75;101107.31;5078613;28;45375;-81
2022/11/12 07:36:06;;;;;;;;;0.00;0.00;;;;;14.10;60.28;101109.16;5077987;28;45422;-81
2022/11/12 07:38:34;;;;;;;;;0.00;0.00;;;;;14.20;60.16;101117.28;5060040;28;45501;-81
2022/11/12 07:41:12;;;;;;;;;0.00;0.00;;;;;14.28;59.98;101118.34;5093847;27;45516;-76
2022/11/12 07:43:39;;;;;;;;;0.00;0.00;;;;;14.36;60.03;101129.94;5078608;28;45515;-75
2022/11/12 07:46:11;;;;;;;;;0.00;0.00;;;;;14.38;59.68;101117.72;5078036;28;46221;-73
2022/11/12 07:48:37;;;;;;;;;0.00;0.00;;;;;14.45;59.57;101122.28;5077971;28;45842;-75
2022/11/12 07:51:10;;;;;;;;;0.33;0.00;;;;;14.54;59.38;101113.72;5077962;28;45234;-73
2022/11/12 07:53:36;;;;;;;;;0.00;0.00;;;;;14.62;59.57;101120.09;5076431;28;45444;-76
2022/11/12 07:56:03;;;;;;;;;3.00;1.00;;;;;14.66;58.97;101115.75;5076992;28;45508;-73
2022/11/12 07:58:31;;;;;;;;;1.00;1.00;;;;;14.70;59.26;101122.88;5058800;28;45385;-74
2022/11/12 08:00:57;;;;;;;;;2.00;2.00;;;;;14.69;58.92;101115.84;5077286;28;45296;-73
2022/11/12 08:03:23;;;;;;;;;4.00;3.00;;;;;14.83;59.36;101114.41;5077283;28;45351;-72
2022/11/12 08:05:49;;;;;;;;;0.00;0.00;;;;;14.91;58.96;101139.13;5076940;28;45354;-71
2022/11/12 08:08:15;;;;;;;;;1.00;1.00;;;;;14.97;58.93;101138.38;5077203;28;45346;-76
2022/11/12 08:10:40;;;;;;;;;2.33;1.00;;;;;15.05;58.77;101138.53;5077139;28;45467;-72
2022/11/12 08:13:06;;;;;;;;;2.67;2.00;;;;;15.09;58.22;101140.38;5077047;28;45744;-74
2022/11/12 08:15:31;;;;;;;;;0.00;0.00;;;;;15.11;58.37;101139.53;5076716;28;46349;-72
2022/11/12 08:17:57;;;;;;;;;1.00;0.00;;;;;15.35;57.75;101153.19;5076845;28;45471;-73
2022/11/12 08:20:23;;;;;;;;;1.00;1.00;;;;;16.34;56.31;101154.13;5076634;28;45514;-71
2022/11/12 08:22:49;;;;;;;;;1.00;1.00;;;;;18.20;52.84;101150.28;5076954;28;45426;-75
2022/11/12 08:25:15;;;;;;;;;0.00;0.00;;;;;20.22;47.07;101125.53;5076965;28;45520;-74
2022/11/12 08:27:41;;;;;;;;;0.67;0.67;;;;;21.90;44.42;101138.22;5076108;28;45430;-76
2022/11/12 08:30:07;;;;;;;;;1.00;0.00;;;;;23.05;40.82;101145.16;5075900;28;45422;-74
2022/11/12 08:32:33;;;;;;;;;1.00;1.00;;;;;23.95;41.36;101129.69;5076293;27;45725;-72
2022/11/12 08:34:58;;;;;;;;;1.67;1.67;;;;;24.81;38.60;101122.88;5076160;28;45746;-72
2022/11/12 08:37:25;;;;;;;;;2.00;2.00;;;;;25.57;37.11;101135.53;5076420;28;45243;-73
2022/11/12 08:39:51;;;;;;;;;2.00;2.00;;;;;26.18;35.79;101133.22;5073949;28;45485;-74
2022/11/12 08:42:16;;;;;;;;;7.67;7.00;;;;;26.57;35.31;101134.88;5058754;28;45391;-73
2022/11/12 08:44:42;;;;;;;;;1.00;1.00;;;;;26.92;32.79;101133.06;5076433;28;45470;-74
2022/11/12 08:47:07;;;;;;;;;1.00;1.00;;;;;27.03;32.78;101140.78;5076405;28;45493;-75
2022/11/12 08:49:33;;;;;;;;;2.33;2.00;;;;;27.30;32.44;101133.75;5076314;28;45394;-74
2022/11/12 08:51:58;;;;;;;;;3.00;3.00;;;;;27.27;32.84;101140.06;5076406;28;45264;-75
2022/11/12 08:54:24;;;;;;;;;1.00;1.00;;;;;27.26;33.98;101129.41;5076114;28;45434;-73
2022/11/12 08:56:50;;;;;;;;;1.00;1.00;;;;;27.46;33.91;101142.22;5058110;28;45422;-72
2022/11/12 08:59:16;;;;;;;;;1.00;1.00;;;;;27.67;33.38;101135.28;5076939;28;45484;-72
2022/11/12 09:01:41;;;;;;;;;0.00;0.00;;;;;26.81;32.34;101127.97;5066967;28;45353;-72
2022/11/12 09:04:07;;;;;;;;;2.00;1.00;;;;;26.76;34.65;101132.59;5076660;28;45820;-72
2022/11/12 09:06:33;;;;;;;;;1.00;0.00;;;;;26.83;34.07;101134.19;5076915;28;45216;-72
2022/11/12 09:08:58;;;;;;;;;0.00;0.00;;;;;27.00;34.38;101131.03;5058713;28;45522;-72
2022/11/12 09:11:24;;;;;;;;;1.00;1.00;;;;;27.14;34.43;101131.50;5079179;28;45395;-83
2022/11/12 09:13:52;;;;;;;;;0.00;0.00;;;;;26.98;34.97;101135.56;5087487;28;45321;-85
2022/11/12 09:16:18;;;;;;;;;0.33;0.00;;;;;26.76;34.25;101138.84;5066904;28;45495;-83
2022/11/12 09:18:43;;;;;;;;;2.00;2.00;;;;;26.52;35.44;101132.31;5082410;28;46352;-79
2022/11/12 09:21:11;;;;;;;;;0.00;0.00;;;;;26.56;35.38;101133.09;5062026;28;45540;-84
2022/11/12 09:23:39;;;;;;;;;1.00;0.00;;;;;26.65;35.25;101130.22;5076306;28;46226;-83
2022/11/12 09:26:05;;;;;;;;;3.00;3.00;;;;;26.94;35.15;101133.88;5075972;28;45436;-83
2022/11/12 09:28:31;;;;;;;;;2.00;1.00;;;;;27.03;34.00;101128.25;5076126;28;45494;-82
2022/11/12 09:30:57;;;;;;;;;3.00;2.00;;;;;27.18;34.78;101126.94;5059588;28;45365;-78
2022/11/12 09:33:26;;;;;;;;;1.00;1.00;;;;;27.17;34.50;101130.50;5076050;28;45829;-75
2022/11/12 09:35:52;;;;;;;;;1.33;1.00;;;;;26.95;34.58;101125.78;5073636;28;45541;-80
2022/11/12 09:38:19;;;;;;;;;1.00;0.00;;;;;26.89;34.45;101128.63;5076500;28;45585;-80
2022/11/12 09:40:50;;;;;;;;;1.00;1.00;;;;;26.97;34.61;101123.94;5061550;28;45485;-82
2022/11/12 09:43:23;;;;;;;;;1.33;1.00;;;;;27.11;33.85;101126.22;5078885;28;45549;-85
2022/11/12 09:45:51;;;;;;;;;1.00;0.67;;;;;26.80;32.95;101136.97;5079519;28;45552;-86
2022/11/12 09:48:24;;;;;;;;;2.00;2.00;;;;;26.59;34.48;101133.94;5078533;28;45326;-79
2022/11/12 09:51:24;;;;;;;;;1.00;1.00;;;;;26.66;34.74;101133.75;5070103;28;45312;-78
2022/11/12 09:54:17;;;;;;;;;0.00;0.00;;;;;26.33;34.20;101131.06;5079425;28;46312;-79
2022/11/12 09:56:43;;;;;;;;;3.00;3.00;;;;;26.01;34.99;101131.88;5078084;28;45249;-78
2022/11/12 09:59:12;;;;;;;;;2.00;2.00;;;;;25.73;35.42;101129.84;5079247;28;45424;-78
2022/11/12 10:02:14;;;;;;;;;3.00;2.00;;;;;25.43;35.84;101134.06;5079660;28;45310;-80
2022/11/12 10:05:16;;;;;;;;;3.00;2.00;;;;;25.20;35.43;101130.09;5062321;28;45435;-80
2022/11/12 10:08:06;;;;;;;;;3.67;2.67;;;;;25.13;36.35;101134.69;5078309;28;45537;-82
2022/11/12 10:10:48;;;;;;;;;0.67;0.67;;;;;25.16;36.63;101139.97;5058933;28;45536;-81
2022/11/12 10:13:19;;;;;;;;;2.00;2.00;;;;;25.05;35.77;101135.75;5077901;28;45496;-83
2022/11/12 10:19:24;;;;;;;;;2.00;2.00;;;;;24.30;37.54;101125.56;5075824;28;45310;-75
2022/11/12 10:22:16;;;;;;;;;2.00;2.00;;;;;24.15;38.56;101142.75;5078697;28;45522;-80
2022/11/12 10:24:44;;;;;;;;;1.67;0.67;;;;;24.05;38.69;101133.09;5078824;28;45315;-80
2022/11/12 10:27:35;;;;;;;;;1.00;1.00;;;;;23.99;38.24;101131.44;5060459;28;46870;-80
2022/11/12 10:30:05;;;;;;;;;5.33;5.33;;;;;24.04;38.29;101125.16;5079034;28;45217;-80
2022/11/12 10:32:30;;;;;;;;;0.33;0.33;;;;;24.04;39.02;101125.16;5079443;28;45305;-80
2022/11/12 10:34:56;;;;;;;;;1.00;1.00;;;;;24.08;39.06;101134.84;5079677;28;45292;-80
2022/11/12 10:37:34;;;;;;;;;1.00;1.00;;;;;24.15;39.77;101125.81;5078901;28;46577;-81
2022/11/12 10:40:20;;;;;;;;;2.00;1.67;;;;;24.29;39.22;101117.56;5079061;28;45480;-72
2022/11/12 10:43:00;;;;;;;;;2.00;2.00;;;;;24.27;40.17;101122.06;5078832;27;45638;-77
2022/11/12 10:45:27;;;;;;;;;2.00;2.00;;;;;24.17;40.59;101122.25;5061545;28;45495;-74
2022/11/12 10:47:53;;;;;;;;;1.00;1.00;;;;;24.09;40.39;101133.94;5079152;28;45341;-80
2022/11/12 10:50:24;;;;;;;;;2.00;2.00;;;;;23.85;40.80;101117.41;5078740;28;45330;-76
2022/11/12 10:53:00;;;;;;;;;2.00;1.00;;;;;23.59;41.54;101069.78;5079338;28;45338;-75
2022/11/12 10:55:35;;;;;;;;;1.33;0.67;;;;;23.77;41.89;101100.63;5061274;28;45619;-79
2022/11/12 10:58:08;;;;;;;;;1.00;0.67;;;;;23.73;41.97;101098.91;5078641;28;45293;-78
2022/11/12 11:00:34;;;;;;;;;1.00;1.00;;;;;23.78;41.48;101102.44;5078752;28;45375;-78
2022/11/12 11:03:02;;;;;;;;;1.00;1.00;;;;;23.78;41.37;101105.97;5078818;28;45402;-78
2022/11/12 11:05:55;;;;;;;;;1.00;1.00;;;;;23.85;41.96;101098.75;5079335;28;45503;-75
2022/11/12 11:08:32;;;;;;;;;2.00;2.00;;;;;24.04;40.31;101112.66;5078469;28;46125;-79
2022/11/12 11:11:24;;;;;;;;;2.67;2.67;;;;;24.16;40.76;101099.13;5079127;28;45286;-78
2022/11/12 11:13:53;;;;;;;;;2.00;2.00;;;;;24.16;38.87;101093.78;5074509;28;45628;-77
2022/11/12 11:16:25;;;;;;;;;1.00;1.00;;;;;24.15;38.93;101084.03;5078253;28;45516;-83
2022/11/12 11:18:56;;;;;;;;;1.00;1.00;;;;;24.32;38.66;101089.03;5078693;28;46088;-81
2022/11/12 11:21:31;;;;;;;;;2.00;2.00;;;;;24.57;38.36;101091.28;5078371;28;45515;-79
2022/11/12 11:24:43;;;;;;;;;2.00;1.00;;;;;24.86;37.78;101087.16;5078951;28;45327;-81
2022/11/12 11:27:31;;;;;;;;;0.00;0.00;;;;;25.28;37.62;101087.16;5041538;28;45759;-79
2022/11/12 11:30:15;;;;;;;;;0.00;0.00;;;;;25.58;37.39;101089.13;5078611;28;46052;-75
2022/11/12 11:32:57;;;;;;;;;1.00;0.33;;;;;25.83;36.70;101071.63;5078380;28;45493;-77
2022/11/12 11:35:47;;;;;;;;;2.00;1.00;;;;;26.07;36.74;101073.69;5078064;28;45529;-83
2022/11/12 11:38:51;;;;;;;;;1.00;1.00;;;;;26.33;36.44;101066.78;5078180;28;45490;-83
2022/11/12 11:41:17;;;;;;;;;1.33;1.00;;;;;26.57;36.13;101067.88;5077705;28;46049;-79
2022/11/12 11:43:43;;;;;;;;;1.00;1.00;;;;;26.64;35.88;101066.84;5058688;28;45500;-79
2022/11/12 11:46:23;;;;;;;;;2.00;1.00;;;;;26.77;35.22;101059.31;5077701;28;45433;-80
2022/11/12 11:48:54;;;;;;;;;1.00;1.00;;;;;26.84;35.41;101052.84;5078643;28;45460;-78
2022/11/12 11:51:49;;;;;;;;;2.33;2.33;;;;;26.93;35.08;101057.91;5077961;28;45954;-76
2022/11/12 11:54:26;;;;;;;;;1.67;1.67;;;;;26.97;35.40;101054.22;5077865;28;45600;-80
2022/11/12 11:56:57;;;;;;;;;0.67;0.67;;;;;26.84;33.82;101036.78;5078231;28;45573;-79